• Join FlightAware (Why Join?)
  • Login
  • US Flag 
03:00PM EST


 

Airport Tracker/Info


-or-


 

Live Flight TrackerFlight Track Log ✈ FLG4262 ✈ 22-Nov-2013 ✈ KBGM - KDTW

Flight Track Log - Related Links

Times and Time Zones

All times are in EST time to prevent confusion due to time zone crossing. See the FLG4262 flight status page for this flight to view local times or setup timezone preferences in your user account.

Time Position Orientation Groundspeed Altitude Reporting Facility
EST Latitude Longitude Course Direction KTS MPH feet Rate Location/Type
05:27PM 42.1203 -76.0075 220° Southwest 236 272 5,500  Level New York Center
05:28PM 42.1478 -76.0908 294° West 250 288 8,000 2,340 Climbing New York Center
05:30PM 42.1964 -76.2378 294° West 259 298 11,900 2,100 Climbing Cleveland Center
05:31PM 42.2303 -76.3444 293° West 303 349 13,900 1,980 Climbing Cleveland Center
05:32PM 42.2275 -76.6184 289° West  Level Estimated
05:32PM 42.2675 -76.4617 293° West 308 354 16,000  Level Cleveland Center
05:33PM 42.3017 -76.5700 293° West 312 359 16,700 1,200 Climbing Cleveland Center
05:34PM 42.3358 -76.6789 293° West 315 362 18,600 1,560 Climbing Cleveland Center
05:35PM 42.3692 -76.7858 293° West 309 356 20,000 1,500 Climbing Cleveland Center
05:36PM 42.4100 -76.9217 292° West 323 372 21,700 1,920 Climbing Cleveland Center
05:37PM 42.4439 -77.0281 293° West 315 362 24,100 1,860 Climbing Cleveland Center
05:38PM 42.4736 -77.1247 293° West 285 328 25,600 900 Climbing Cleveland Center
05:40PM 42.4875 -77.2289 280° West 283 326 26,000 180 Climbing Cleveland Center
05:41PM 42.4956 -77.3414 276° West 298 343 26,000  Level Cleveland Center
05:42PM 42.5058 -77.4753 276° West 319 367 26,000  Level Cleveland Center
05:43PM 42.5147 -77.6025 275° West 337 388 26,000  Level Cleveland Center
05:44PM 42.5250 -77.7336 276° West 347 399 26,000  Level Cleveland Center
05:45PM 42.5361 -77.8875 276° West 354 407 26,000  Level Cleveland Center
05:46PM 42.5456 -78.0225 275° West 358 412 26,000  Level Cleveland Center
05:47PM 42.5542 -78.1569 275° West 357 411 26,000  Level Cleveland Center
05:48PM 42.5639 -78.2919 276° West 360 414 26,000  Level Cleveland Center
05:49PM 42.5725 -78.4261 275° West 358 412 26,000  Level Cleveland Center
05:50PM 42.5819 -78.5614 275° West 361 415 26,000  Level Cleveland Center
05:51PM 42.5922 -78.7219 275° West 357 411 26,000  Level Cleveland Center
05:52PM 42.6006 -78.8539 275° West 354 407 26,000  Level Cleveland Center
05:53PM 42.6089 -78.9872 275° West 355 409 26,000  Level Cleveland Center
05:54PM 42.6164 -79.1211 274° West 357 411 26,000  Level Cleveland Center
05:55PM 42.6239 -79.2533 274° West 353 406 26,000  Level Cleveland Center
05:56PM 42.6317 -79.3858 275° West 353 406 26,000  Level Cleveland Center
05:57PM 42.6394 -79.5439 274° West 352 405 26,000  Level Cleveland Center
05:58PM 42.6478 -79.6758 275° West 351 404 26,000  Level Cleveland Center
05:59PM 42.6542 -79.8072 274° West 351 404 26,000  Level Cleveland Center
06:00PM 42.6614 -79.9350 274° West 343 395 26,000  Level Cleveland Center
06:01PM 42.6667 -80.0575 273° West 334 384 26,000  Level Cleveland Center
06:02PM 42.6742 -80.1978 274° West 321 369 26,000  Level Cleveland Center
06:03PM 42.6800 -80.3181 274° West 317 365 26,000  Level Cleveland Center
06:04PM 42.6856 -80.4356 274° West 313 360 26,000  Level Cleveland Center
06:05PM 42.6906 -80.5533 273° West 311 358 26,000  Level Cleveland Center
06:06PM 42.6967 -80.6725 274° West 311 358 26,000  Level Cleveland Center
06:07PM 42.7028 -80.7942 274° West 322 371 26,000  Level Cleveland Center
06:08PM 42.7017 -80.9331 269° West 317 365 26,000  Level Cleveland Center
06:10PM 42.6875 -81.0514 261° West 317 365 26,000 -360 Level Cleveland Center
06:11PM 42.6736 -81.1714 261° West 317 365 25,300 -840 Descending Cleveland Center
06:12PM 42.6606 -81.2906 262° West 318 366 24,300 -660 Descending Cleveland Center
06:13PM 42.6456 -81.4114 260° West 321 369 24,000 -180 Descending Cleveland Center
06:14PM 42.6325 -81.5303 262° West 318 366 24,000  Level Cleveland Center
06:15PM 42.6189 -81.6464 261° West 311 358 24,000 -600 Level Cleveland Center
06:16PM 42.6033 -81.7728 261° West 293 337 22,800 -1,200 Descending Cleveland Center
06:17PM 42.5919 -81.8617 260° West 283 326 21,500 -1,500 Descending Cleveland Center
06:18PM 42.5778 -81.9875 261° West 283 326 19,700 -1,620 Descending Cleveland Center
06:19PM 42.5653 -82.0925 261° West 282 325 18,200 -1,260 Descending Cleveland Center
06:20PM 42.5519 -82.1983 260° West 285 328 17,100 -1,320 Descending Cleveland Center
06:21PM 42.5386 -82.2967 260° West 272 313 15,500 -1,800 Descending Cleveland Center
06:21PM 42.5364 -82.3153 261° West 256 295 15,200 -1,500 Descending Cleveland Center
06:22PM 42.5267 -82.3939 260° West 264 304 14,000 -1,440 Descending Cleveland Center
06:23PM 42.5158 -82.4939 262° West 259 298 12,600 -1,380 Descending Cleveland Center
06:23PM 42.5150 -82.4906 109° East 263 303 12,600 -660 Level Cleveland Center
06:24PM 42.4975 -82.5736 254° West 250 288 12,000 -600 Descending Cleveland Center
06:24PM 42.4897 -82.5961 245° Southwest 250 288 12,000  Level Cleveland Center
06:25PM 42.4586 -82.6831 244° Southwest 255 293 12,000  Level Cleveland Center
06:26PM 42.4317 -82.7628 245° Southwest 260 299 12,100  Climbing Cleveland Center
06:26PM 42.4272 -82.7711 234° Southwest 258 297 12,000  Descending Cleveland Center
06:27PM 42.4031 -82.8411 245° Southwest 262 302 12,100  Climbing Cleveland Center
06:27PM 42.3956 -82.8608 243° Southwest 262 302 12,000 -120 Descending Cleveland Center
06:28PM 42.3664 -82.9406 244° Southwest 257 296 12,000  Level Cleveland Center
06:28PM 42.3642 -82.9478 247° West 261 300 12,000  Level Cleveland Center
06:29PM 42.3422 -83.0108 245° Southwest 249 287 12,000  Level Cleveland Center
06:29PM 42.3350 -83.0306 244° Southwest 250 288 12,000  Level Cleveland Center
06:30PM 42.3158 -83.0833 244° Southwest 211 243 12,000  Level Cleveland Center
06:30PM 42.3039 -83.1161 244° Southwest 219 252 12,000 60 Level Cleveland Center
06:31PM 42.2856 -83.1525 236° Southwest 216 249 12,100  Climbing Cleveland Center
06:31PM 42.2619 -83.1692 208° Southwest 219 252 12,000 -420 Descending Cleveland Center
06:32PM 42.2319 -83.1958 213° Southwest 225 259 11,700 -900 Descending Cleveland Center
06:32PM 42.2094 -83.2136 210° Southwest 221 254 11,100 -1,260 Descending Cleveland Center
06:33PM 42.1783 -83.2392 211° Southwest 228 262 10,400 -1,380 Descending Cleveland Center
06:33PM 42.1544 -83.2606 214° Southwest 229 264 9,700 -1,500 Descending Cleveland Center
06:34PM 42.1197 -83.2903 212° Southwest 245 282 8,900 -1,500 Descending Cleveland Center
06:34PM 42.0964 -83.3103 212° Southwest 243 280 8,200 -1,320 Descending Cleveland Center
06:35PM 42.0575 -83.3378 208° Southwest 249 287 7,600 -1,020 Descending Cleveland Center
06:35PM 42.0336 -83.3503 201° Southwest 245 282 7,200 -480 Descending Cleveland Center
06:36PM 41.9950 -83.3600 191° South 210 242 7,100 -240 Descending Cleveland Center
06:36PM 41.9672 -83.3519 168° South 213 245 7,000 -120 Descending Cleveland Center
06:37PM 41.9292 -83.3450 172° South 211 243 7,000 -300 Level Cleveland Center
06:37PM 41.9086 -83.3408 171° South 210 242 6,700 -1,020 Descending Cleveland Center
06:38PM 41.8836 -83.3358 172° South 209 241 6,200 -1,080 Descending Cleveland Center
06:38PM 41.8511 -83.3322 175° South 207 238 5,600 -1,020 Descending Cleveland Center
06:39PM 41.8297 -83.3564 220° Southwest 194 223 5,200 -600 Descending Cleveland Center
06:40PM 41.8225 -83.3900 254° West 193 222 5,000 -600 Descending Cleveland Center
06:40PM 41.8142 -83.4214 250° West 185 213 4,600 -900 Descending Cleveland Center
06:41PM 41.8114 -83.4533 263° West 185 213 4,100 -600 Descending Cleveland Center
06:41PM 41.8269 -83.4708 320° Northwest 149 171 4,000 -120 Descending Cleveland Center
06:42PM 41.8472 -83.4822 337° Northwest 157 181 4,000  Level Cleveland Center
06:42PM 41.8656 -83.4847 354° North 141 162 4,000  Level Cleveland Center
06:43PM 41.8856 -83.4872 355° North 142 163 4,000 60 Level Cleveland Center
06:43PM 41.9047 -83.4931 347° North 155 178 4,100  Climbing Cleveland Center
06:44PM 41.9350 -83.4961 356° North 147 169 4,000 -120 Descending Cleveland Center
06:44PM 41.9547 -83.4975 357° North 147 169 4,000  Level Cleveland Center
06:45PM 41.9769 -83.4944 North 149 171 4,000  Level Cleveland Center
06:45PM 41.9931 -83.4917 North 148 170 4,000  Level Cleveland Center
06:46PM 42.0172 -83.4833 14° North 148 170 4,000  Level Cleveland Center
06:46PM 42.0344 -83.4694 31° Northeast 153 176 4,000  Level Cleveland Center
06:47PM 42.0536 -83.4556 28° Northeast 149 171 4,000 -360 Level Cleveland Center
06:47PM 42.0681 -83.4433 32° Northeast 152 175 3,700 -780 Descending Cleveland Center
06:48PM 42.0903 -83.4283 27° Northeast 151 174 3,200 -900 Descending Cleveland Center
06:48PM 42.1058 -83.4178 27° Northeast 143 165 2,800 -1,020 Descending Cleveland Center
06:49PM 42.1319 -83.3989 28° Northeast 147 169 2,200 -840 Descending Cleveland Center
06:49PM 42.1389 -83.3942 27° Northeast 128 147 2,000 -720 Descending Cleveland Center
06:50PM 42.1628 -83.3769 28° Northeast 135 155 1,500 -720 Descending Cleveland Center
06:50PM 42.1703 -83.3706 32° Northeast 130 150 1,300 -720 Descending Cleveland Center
06:51PM 42.1936 -83.3525 30° Northeast 131 151 800 -660 Descending Cleveland Center